Kayare, Texas
Current Conditions -  °F | °C
As of 6:52 PM on Monday 26 Jan 2015 (Local Time) from KHRL Reporting Station
Clear Clear  
Wind Chill: 61°   Ceiling: Unl
Heat Index: 61°   Visibility: 10mi
Dew Point: 44°   Wind: 8mph
Humidity: 54%   Direction: 140°SE
Pressure: 30.21"   Gusts: NA
Location:  26.2089°N, 97.6849°W
Report Text: KHRL 270052Z 14007KT 10SM CLR 16/07 A3021 RMK AO2 SLP231 T01610067
Loading
Personal Weather Stations






























Interactive Weather Map New forecast layout! Learn more

10-Day Weather Forecast

Advertisements
Track Severe Weather on mobile